createdAt,value
2019-05-18T00:00:03.049Z,0
2019-05-18T00:01:02.888Z,0
2019-05-18T00:02:02.938Z,0
2019-05-18T00:03:03.234Z,0
2019-05-18T00:06:18.777Z,0
2019-05-18T00:07:09.486Z,0
2019-05-18T00:08:09.470Z,0
2019-05-18T00:09:09.678Z,0
2019-05-18T00:10:09.527Z,0
2019-05-18T00:11:09.527Z,0
2019-05-18T00:12:09.593Z,0
2019-05-18T00:13:09.560Z,0
2019-05-18T00:14:09.833Z,0
2019-05-18T00:15:09.581Z,0
2019-05-18T00:16:09.459Z,0
2019-05-18T00:17:27.802Z,0
2019-05-18T00:18:09.535Z,0
2019-05-18T00:19:09.564Z,0
2019-05-18T00:20:11.430Z,0
2019-05-18T00:27:35.133Z,0
2019-05-18T00:28:46.159Z,0
2019-05-18T00:29:46.348Z,0
2019-05-18T00:30:46.218Z,0
2019-05-18T00:31:46.142Z,0
2019-05-18T00:32:46.476Z,0
2019-05-18T00:33:46.215Z,0
2019-05-18T00:34:46.114Z,0
2019-05-18T00:35:46.184Z,0
2019-05-18T00:36:46.122Z,0
2019-05-18T00:37:46.219Z,0
2019-05-18T00:38:46.437Z,0
2019-05-18T00:40:50.870Z,0
2019-05-18T00:41:01.865Z,0
2019-05-18T00:42:01.934Z,0
2019-05-18T00:43:01.902Z,0
2019-05-18T00:44:02.193Z,0
2019-05-18T00:45:01.956Z,0
2019-05-18T00:46:01.942Z,0
2019-05-18T00:47:01.872Z,0
2019-05-18T00:48:02.184Z,0
2019-05-18T00:49:01.859Z,0
2019-05-18T00:50:02.296Z,0
2019-05-18T00:51:01.968Z,0
2019-05-18T00:52:01.869Z,0
2019-05-18T00:53:01.974Z,0
2019-05-18T00:54:01.918Z,0
2019-05-18T00:55:01.884Z,0
2019-05-18T00:56:02.338Z,0
2019-05-18T00:57:01.871Z,0
2019-05-18T00:58:02.018Z,0
2019-05-18T00:59:01.985Z,0
2019-05-18T01:00:01.919Z,0
2019-05-18T01:01:01.897Z,0
2019-05-18T01:02:02.698Z,0
2019-05-18T01:03:01.878Z,0
2019-05-18T01:04:02.122Z,0
2019-05-18T01:05:01.902Z,0
2019-05-18T01:06:10.515Z,0
2019-05-18T01:07:01.895Z,0
2019-05-18T01:08:02.785Z,0
2019-05-18T01:09:01.940Z,0
2019-05-18T01:10:02.019Z,0
2019-05-18T01:11:01.900Z,0
2019-05-18T01:12:01.937Z,0
2019-05-18T01:13:05.648Z,0
2019-05-18T01:14:04.092Z,0
2019-05-18T01:15:02.016Z,0
2019-05-18T01:16:01.852Z,0
2019-05-18T01:17:02.174Z,0
2019-05-18T01:18:10.286Z,0
2019-05-18T01:19:01.873Z,0
2019-05-18T01:20:02.434Z,0
2019-05-18T01:21:02.457Z,0
2019-05-18T01:22:01.952Z,0
2019-05-18T01:23:02.108Z,0
2019-05-18T01:24:02.097Z,0
2019-05-18T01:25:01.971Z,0
2019-05-18T01:26:02.397Z,0
2019-05-18T01:27:01.929Z,0
2019-05-18T01:28:02.060Z,0
2019-05-18T01:29:02.009Z,0
2019-05-18T01:30:02.217Z,0
2019-05-18T01:31:01.948Z,0
2019-05-18T01:32:02.284Z,0
2019-05-18T01:33:01.986Z,0
2019-05-18T01:34:01.972Z,0
2019-05-18T01:35:02.086Z,0
2019-05-18T01:36:01.974Z,0
2019-05-18T01:37:02.082Z,0
2019-05-18T01:38:02.236Z,0
2019-05-18T01:39:02.019Z,0
2019-05-18T01:41:06.754Z,0
2019-05-18T01:41:18.044Z,0
2019-05-18T01:42:17.783Z,0
2019-05-18T01:43:19.042Z,0
2019-05-18T01:44:17.775Z,0
2019-05-18T01:45:27.122Z,0
2019-05-18T01:46:17.770Z,0
2019-05-18T01:47:17.815Z,0
2019-05-18T01:48:24.255Z,0
2019-05-18T01:49:18.098Z,0
2019-05-18T01:50:18.006Z,0
2019-05-18T01:51:17.761Z,0
2019-05-18T01:52:17.769Z,0
2019-05-18T01:53:17.798Z,0
2019-05-18T01:54:17.878Z,0
2019-05-18T01:55:18.094Z,0
2019-05-18T01:56:17.768Z,0
2019-05-18T01:57:17.780Z,0
2019-05-18T01:58:17.807Z,0
2019-05-18T01:59:17.813Z,0
2019-05-18T02:00:18.004Z,0
2019-05-18T02:01:18.319Z,0
2019-05-18T02:02:17.835Z,0
2019-05-18T02:03:17.835Z,0
2019-05-18T02:04:17.792Z,0
2019-05-18T02:05:17.833Z,0
2019-05-18T02:06:27.469Z,0
2019-05-18T02:07:18.037Z,0
2019-05-18T02:08:17.958Z,0
2019-05-18T02:09:17.794Z,0
2019-05-18T02:10:18.006Z,0
2019-05-18T02:11:17.737Z,0
2019-05-18T02:12:17.793Z,0
2019-05-18T02:13:18.283Z,0
2019-05-18T02:14:17.812Z,0
2019-05-18T02:15:17.834Z,0
2019-05-18T02:16:17.846Z,0
2019-05-18T02:17:17.876Z,0
2019-05-18T02:18:30.897Z,0
2019-05-18T02:19:18.149Z,0
2019-05-18T02:20:18.016Z,0
2019-05-18T02:21:17.939Z,0
2019-05-18T02:22:17.827Z,0
2019-05-18T02:23:17.769Z,0
2019-05-18T02:24:17.981Z,0
2019-05-18T02:25:18.173Z,0
2019-05-18T02:26:17.810Z,0
2019-05-18T02:27:17.818Z,0
2019-05-18T02:28:17.839Z,0
2019-05-18T02:29:17.834Z,0
2019-05-18T02:30:22.485Z,0
2019-05-18T02:31:18.193Z,0
2019-05-18T02:32:17.850Z,0
2019-05-18T02:33:17.836Z,0
2019-05-18T02:34:17.843Z,0
2019-05-18T02:35:17.800Z,0
2019-05-18T02:36:29.613Z,0
2019-05-18T02:37:18.084Z,0
2019-05-18T02:38:17.797Z,0
2019-05-18T02:39:17.988Z,0
2019-05-18T02:40:18.807Z,0
2019-05-18T02:41:17.858Z,0
2019-05-18T02:42:17.897Z,0
2019-05-18T02:43:17.849Z,0
2019-05-18T02:44:17.853Z,0
2019-05-18T02:45:17.885Z,0
2019-05-18T02:46:17.884Z,0
2019-05-18T02:47:17.875Z,0
2019-05-18T02:48:17.878Z,0
2019-05-18T02:49:18.257Z,0
2019-05-18T02:50:18.367Z,0
2019-05-18T02:51:21.801Z,0
2019-05-18T02:52:17.956Z,0
2019-05-18T02:53:18.014Z,0
2019-05-18T02:54:17.886Z,0
2019-05-18T02:55:18.157Z,0
2019-05-18T02:56:17.853Z,0
2019-05-18T02:57:17.878Z,0
2019-05-18T02:58:17.843Z,0
2019-05-18T02:59:17.852Z,0
2019-05-18T03:00:18.149Z,0
2019-05-18T03:01:18.321Z,0
2019-05-18T03:02:17.888Z,0
2019-05-18T03:03:17.823Z,0
2019-05-18T03:04:17.930Z,0
2019-05-18T03:05:17.866Z,0
2019-05-18T03:06:28.513Z,0
2019-05-18T03:07:18.316Z,0
2019-05-18T03:08:17.886Z,0
2019-05-18T03:09:17.863Z,0
2019-05-18T03:10:18.119Z,0
2019-05-18T03:11:17.950Z,0
2019-05-18T03:12:18.012Z,0
2019-05-18T03:13:17.883Z,0
2019-05-18T03:14:18.029Z,0
2019-05-18T03:15:17.877Z,0
2019-05-18T03:16:17.882Z,0
2019-05-18T03:17:17.885Z,0
2019-05-18T03:18:17.871Z,0
2019-05-18T03:19:19.926Z,0
2019-05-18T03:20:18.131Z,0
2019-05-18T03:21:17.921Z,0
2019-05-18T03:22:17.866Z,0
2019-05-18T03:23:17.901Z,0
2019-05-18T03:24:17.861Z,0
2019-05-18T03:25:18.292Z,0
2019-05-18T03:26:17.966Z,0
2019-05-18T03:27:18.018Z,0
2019-05-18T03:28:17.858Z,0
2019-05-18T03:29:17.914Z,0
2019-05-18T03:30:18.241Z,0
2019-05-18T03:31:18.253Z,0
2019-05-18T03:32:18.030Z,0
2019-05-18T03:33:17.952Z,0
2019-05-18T03:34:17.898Z,0
2019-05-18T03:35:18.007Z,0
2019-05-18T03:41:36.317Z,0
2019-05-18T03:41:47.271Z,0
2019-05-18T03:42:47.441Z,0
2019-05-18T03:43:47.277Z,0
2019-05-18T03:44:47.359Z,0
2019-05-18T03:45:47.385Z,0
2019-05-18T03:46:47.431Z,0
2019-05-18T03:47:47.359Z,0
2019-05-18T03:48:47.664Z,0
2019-05-18T03:49:47.406Z,0
2019-05-18T03:50:47.350Z,0
2019-05-18T03:51:47.379Z,0
2019-05-18T03:52:47.290Z,0
2019-05-18T03:53:47.338Z,0
2019-05-18T03:54:47.727Z,0
2019-05-18T03:55:47.388Z,0
2019-05-18T03:56:47.297Z,0
2019-05-18T03:57:47.283Z,0
2019-05-18T03:58:47.323Z,0
2019-05-18T03:59:47.316Z,0
2019-05-18T04:00:47.665Z,0
2019-05-18T04:01:47.457Z,0
2019-05-18T04:02:47.376Z,0
2019-05-18T04:03:47.299Z,0
2019-05-18T04:04:47.374Z,0
2019-05-18T04:05:47.347Z,0
2019-05-18T04:06:47.609Z,0
2019-05-18T04:07:47.340Z,0
2019-05-18T04:08:47.293Z,0
2019-05-18T04:09:47.336Z,0
2019-05-18T04:10:47.276Z,0
2019-05-18T04:11:47.345Z,0
2019-05-18T04:12:47.694Z,0
2019-05-18T04:13:47.349Z,0
2019-05-18T04:14:48.573Z,0
2019-05-18T04:15:47.380Z,0
2019-05-18T04:16:47.367Z,0
2019-05-18T04:17:48.044Z,0
2019-05-18T04:18:47.771Z,5
2019-05-18T04:19:57.092Z,0
2019-05-18T04:20:47.489Z,5
2019-05-18T04:21:47.445Z,5
2019-05-18T04:22:47.381Z,5
2019-05-18T04:23:47.385Z,5
2019-05-18T04:24:47.729Z,5
2019-05-18T04:25:51.930Z,5
2019-05-18T04:26:47.493Z,5
2019-05-18T04:27:47.331Z,5
2019-05-18T04:28:47.337Z,5
2019-05-18T04:29:47.360Z,5
2019-05-18T04:30:47.664Z,5
2019-05-18T04:31:47.403Z,5
2019-05-18T04:32:47.381Z,5
2019-05-18T04:33:47.371Z,5
2019-05-18T04:34:47.354Z,5
2019-05-18T04:35:47.451Z,5
2019-05-18T04:36:47.838Z,5
2019-05-18T04:37:47.762Z,5
2019-05-18T04:38:47.478Z,5
2019-05-18T04:39:47.488Z,5
2019-05-18T04:40:47.476Z,5
2019-05-18T04:41:47.483Z,5
2019-05-18T04:42:47.762Z,5
2019-05-18T04:43:47.537Z,5
2019-05-18T04:44:47.460Z,5
2019-05-18T04:45:47.569Z,5
2019-05-18T04:46:47.475Z,5
2019-05-18T04:47:51.243Z,5
2019-05-18T04:48:47.426Z,5
2019-05-18T04:50:06.555Z,10
2019-05-18T04:50:47.380Z,10
2019-05-18T04:51:47.450Z,5
2019-05-18T04:52:47.405Z,5
2019-05-18T04:53:47.708Z,5
2019-05-18T04:54:47.425Z,10
2019-05-18T04:55:47.386Z,10
2019-05-18T04:56:50.833Z,10
2019-05-18T04:57:47.479Z,10
2019-05-18T04:58:47.468Z,10
2019-05-18T04:59:48.791Z,10
2019-05-18T05:00:47.432Z,10
2019-05-18T05:01:48.797Z,10
2019-05-18T05:02:47.454Z,10
2019-05-18T05:03:47.950Z,10
2019-05-18T05:04:49.512Z,10
2019-05-18T05:05:47.727Z,10
2019-05-18T05:06:47.478Z,10
2019-05-18T05:07:47.428Z,10
2019-05-18T05:08:47.407Z,10
2019-05-18T05:09:47.494Z,10
2019-05-18T05:10:47.522Z,15
2019-05-18T05:11:47.780Z,15
2019-05-18T05:12:47.557Z,15
2019-05-18T05:13:47.441Z,15
2019-05-18T05:14:47.448Z,15
2019-05-18T05:15:47.485Z,15
2019-05-18T05:16:47.541Z,15
2019-05-18T05:17:47.793Z,15
2019-05-18T05:18:47.600Z,15
2019-05-18T05:19:47.418Z,15
2019-05-18T05:20:47.531Z,15
2019-05-18T05:21:47.539Z,15
2019-05-18T05:22:47.523Z,20
2019-05-18T05:23:47.819Z,20
2019-05-18T05:24:47.462Z,20
2019-05-18T05:25:47.464Z,20
2019-05-18T05:26:50.894Z,20
2019-05-18T05:27:47.428Z,20
2019-05-18T05:28:47.517Z,20
2019-05-18T05:29:47.793Z,20
2019-05-18T05:30:47.470Z,20
2019-05-18T05:31:47.518Z,20
2019-05-18T05:32:47.472Z,20
2019-05-18T05:33:47.432Z,20
2019-05-18T05:34:47.438Z,20
2019-05-18T05:35:48.607Z,20
2019-05-18T05:36:55.750Z,20
2019-05-18T05:37:47.665Z,20
2019-05-18T05:38:47.509Z,20
2019-05-18T05:39:47.531Z,20
2019-05-18T05:40:47.458Z,20
2019-05-18T05:41:47.868Z,20
2019-05-18T05:42:47.470Z,20
2019-05-18T05:43:47.495Z,20
2019-05-18T05:44:47.526Z,20
2019-05-18T05:45:47.471Z,20
2019-05-18T05:46:47.922Z,20
2019-05-18T05:47:47.826Z,20
2019-05-18T05:48:47.511Z,20
2019-05-18T05:49:47.518Z,25
2019-05-18T05:50:47.482Z,25
2019-05-18T05:51:47.506Z,25
2019-05-18T05:52:47.557Z,25
2019-05-18T05:53:47.915Z,25
2019-05-18T05:54:47.545Z,25
2019-05-18T05:55:47.524Z,25
2019-05-18T05:56:47.768Z,25
2019-05-18T05:57:47.551Z,30
2019-05-18T05:58:47.677Z,30
2019-05-18T05:59:48.858Z,30
2019-05-18T06:00:47.574Z,30
2019-05-18T06:01:47.720Z,30
2019-05-18T06:02:47.561Z,30
2019-05-18T06:03:47.585Z,30
2019-05-18T06:04:47.494Z,30
2019-05-18T06:05:47.873Z,30
2019-05-18T06:06:51.122Z,35
2019-05-18T06:07:47.551Z,35
2019-05-18T06:08:47.560Z,35
2019-05-18T06:09:47.516Z,35
2019-05-18T06:10:47.594Z,35
2019-05-18T06:11:47.928Z,35
2019-05-18T06:12:47.556Z,35
2019-05-18T06:13:47.670Z,35
2019-05-18T06:14:47.556Z,35
2019-05-18T06:15:47.650Z,45
2019-05-18T06:16:47.531Z,55
2019-05-18T06:17:47.866Z,55
2019-05-18T06:18:47.806Z,60
2019-05-18T06:19:47.625Z,65
2019-05-18T06:21:01.448Z,75
2019-05-18T06:21:47.557Z,75
2019-05-18T06:22:47.587Z,85
2019-05-18T06:23:48.143Z,105
2019-05-18T06:24:47.557Z,180
2019-05-18T06:25:48.163Z,250
2019-05-18T06:26:47.575Z,255
2019-05-18T06:27:47.513Z,275
2019-05-18T06:28:47.567Z,285
2019-05-18T06:29:47.802Z,285
2019-05-18T06:30:47.642Z,295
2019-05-18T06:31:47.581Z,295
2019-05-18T06:32:47.546Z,300
2019-05-18T06:33:47.557Z,295
2019-05-18T06:34:47.582Z,285
2019-05-18T06:35:48.018Z,280
2019-05-18T06:37:01.240Z,280
2019-05-18T06:37:47.566Z,285
2019-05-18T06:38:47.730Z,290
2019-05-18T06:39:47.614Z,305
2019-05-18T06:40:47.693Z,310
2019-05-18T06:41:47.863Z,320
2019-05-18T06:42:47.645Z,320
2019-05-18T06:43:47.578Z,325
2019-05-18T06:44:47.637Z,325
2019-05-18T06:45:47.596Z,330
2019-05-18T06:46:47.610Z,320
2019-05-18T06:47:51.016Z,310
2019-05-18T06:48:47.635Z,295
2019-05-18T06:49:47.586Z,280
2019-05-18T06:50:47.623Z,270
2019-05-18T06:51:47.585Z,270
2019-05-18T06:52:47.605Z,265
2019-05-18T06:53:48.044Z,260
2019-05-18T06:54:47.625Z,255
2019-05-18T06:55:47.743Z,250
2019-05-18T06:56:47.590Z,235
2019-05-18T06:57:47.621Z,230
2019-05-18T06:58:47.610Z,230
2019-05-18T06:59:47.938Z,205
2019-05-18T07:00:47.660Z,215
2019-05-18T07:01:47.583Z,220
2019-05-18T07:02:47.560Z,215
2019-05-18T07:03:50.261Z,210
2019-05-18T07:04:49.777Z,205
2019-05-18T07:05:47.924Z,200
2019-05-18T07:06:58.247Z,165
2019-05-18T07:07:47.625Z,140
2019-05-18T07:08:47.669Z,145
2019-05-18T07:09:47.610Z,155
2019-05-18T07:10:47.699Z,155
2019-05-18T07:11:47.646Z,160
2019-05-18T07:12:47.653Z,155
2019-05-18T07:13:47.604Z,155
2019-05-18T07:14:47.645Z,160
2019-05-18T07:15:47.680Z,165
2019-05-18T07:16:48.107Z,160
2019-05-18T07:17:47.651Z,145
2019-05-18T07:18:47.609Z,150
2019-05-18T07:19:47.646Z,160
2019-05-18T07:20:47.710Z,165
2019-05-18T07:21:47.640Z,165
2019-05-18T07:22:47.950Z,160
2019-05-18T07:23:49.182Z,160
2019-05-18T07:24:47.716Z,160
2019-05-18T07:25:47.625Z,160
2019-05-18T07:26:47.625Z,155
2019-05-18T07:27:47.653Z,155
2019-05-18T07:28:47.741Z,155
2019-05-18T07:29:47.667Z,155
2019-05-18T07:30:47.791Z,155
2019-05-18T07:31:47.699Z,145
2019-05-18T07:32:47.690Z,140
2019-05-18T07:33:47.752Z,150
2019-05-18T07:34:47.996Z,140
2019-05-18T07:35:47.747Z,140
2019-05-18T07:36:56.041Z,140
2019-05-18T07:37:47.760Z,140
2019-05-18T07:38:47.677Z,135
2019-05-18T07:39:47.778Z,135
2019-05-18T07:40:48.104Z,130
2019-05-18T07:41:56.834Z,125
2019-05-18T07:42:47.769Z,120
2019-05-18T07:43:47.713Z,115
2019-05-18T07:44:47.718Z,115
2019-05-18T07:45:47.710Z,115
2019-05-18T07:46:48.022Z,115
2019-05-18T07:47:47.700Z,115
2019-05-18T07:48:47.703Z,115
2019-05-18T07:49:47.792Z,115
2019-05-18T07:50:47.896Z,110
2019-05-18T07:51:47.912Z,110
2019-05-18T07:52:47.692Z,110
2019-05-18T07:53:47.865Z,110
2019-05-18T07:54:47.727Z,110
2019-05-18T07:55:47.733Z,115
2019-05-18T07:56:47.757Z,115
2019-05-18T07:57:47.808Z,115
2019-05-18T07:58:48.035Z,115
2019-05-18T07:59:47.692Z,115
2019-05-18T08:00:47.706Z,115
2019-05-18T08:01:47.852Z,115
2019-05-18T08:02:47.758Z,115
2019-05-18T08:03:47.843Z,115
2019-05-18T08:04:50.929Z,115
2019-05-18T08:05:47.734Z,115
2019-05-18T08:07:01.900Z,115
2019-05-18T08:07:48.445Z,115
2019-05-18T08:08:47.820Z,110
2019-05-18T08:09:47.777Z,110
2019-05-18T08:10:51.675Z,110
2019-05-18T08:11:48.169Z,105
2019-05-18T08:12:47.846Z,105
2019-05-18T08:13:47.735Z,105
2019-05-18T08:14:47.837Z,105
2019-05-18T08:15:47.781Z,105
2019-05-18T08:16:48.162Z,100
2019-05-18T08:17:47.717Z,100
2019-05-18T08:18:47.781Z,100
2019-05-18T08:19:47.787Z,100
2019-05-18T08:20:47.746Z,95
2019-05-18T08:22:02.626Z,95
2019-05-18T08:22:48.084Z,95
2019-05-18T08:23:47.778Z,95
2019-05-18T08:24:47.721Z,95
2019-05-18T08:25:47.765Z,95
2019-05-18T08:26:47.881Z,90
2019-05-18T08:34:14.653Z,85
2019-05-18T08:34:25.813Z,85
2019-05-18T08:35:27.245Z,85
2019-05-18T08:36:25.624Z,85
2019-05-18T08:37:26.029Z,85
2019-05-18T08:38:25.641Z,85
2019-05-18T08:39:25.708Z,85
2019-05-18T08:40:25.711Z,85
2019-05-18T08:41:25.648Z,85
2019-05-18T08:42:25.686Z,85
2019-05-18T08:43:25.988Z,85
2019-05-18T08:44:25.645Z,85
2019-05-18T08:45:25.647Z,85
2019-05-18T08:46:25.653Z,85
2019-05-18T08:47:25.887Z,85
2019-05-18T08:48:25.629Z,85
2019-05-18T08:49:26.092Z,85
2019-05-18T08:50:25.865Z,85
2019-05-18T08:51:25.810Z,85
2019-05-18T08:52:25.693Z,85
2019-05-18T08:53:25.725Z,85
2019-05-18T08:54:25.712Z,85
2019-05-18T08:55:26.005Z,80
2019-05-18T08:56:25.699Z,85
2019-05-18T08:57:25.689Z,85
2019-05-18T08:58:25.716Z,85
2019-05-18T08:59:25.708Z,85
2019-05-18T09:00:25.789Z,80
2019-05-18T09:01:26.101Z,80
2019-05-18T09:02:25.681Z,80
2019-05-18T09:03:25.688Z,80
2019-05-18T09:04:25.718Z,80
2019-05-18T09:05:25.702Z,80
2019-05-18T09:06:25.706Z,80
2019-05-18T09:07:25.995Z,80
2019-05-18T09:08:25.683Z,80
2019-05-18T09:09:25.709Z,85
2019-05-18T09:10:25.734Z,80
2019-05-18T09:11:25.718Z,80
2019-05-18T09:12:25.703Z,85
2019-05-18T09:13:25.939Z,80
2019-05-18T09:14:25.696Z,85
2019-05-18T09:15:25.806Z,85
2019-05-18T09:16:25.711Z,85
2019-05-18T09:17:25.694Z,85
2019-05-18T09:18:25.784Z,85
2019-05-18T09:19:26.073Z,85
2019-05-18T09:21:30.432Z,85
2019-05-18T09:21:41.415Z,85
2019-05-18T09:22:41.395Z,85
2019-05-18T09:23:41.461Z,85
2019-05-18T09:26:48.656Z,85
2019-05-18T09:26:59.687Z,85
2019-05-18T09:27:59.781Z,85
2019-05-18T09:28:59.623Z,85
2019-05-18T09:29:59.633Z,85
2019-05-18T09:30:59.589Z,85
2019-05-18T09:31:59.948Z,85
2019-05-18T09:32:59.624Z,85
2019-05-18T09:33:59.651Z,85
2019-05-18T09:37:18.628Z,85
2019-05-18T09:38:09.805Z,85
2019-05-18T09:39:09.880Z,85
2019-05-18T09:40:10.379Z,85
2019-05-18T09:41:09.848Z,85
2019-05-18T09:42:09.993Z,85
2019-05-18T09:43:10.089Z,85
2019-05-18T09:44:09.905Z,85
2019-05-18T09:45:09.771Z,85
2019-05-18T09:46:09.836Z,85
2019-05-18T09:47:09.719Z,85
2019-05-18T09:48:09.872Z,85
2019-05-18T09:49:10.292Z,85
2019-05-18T09:50:09.884Z,85
2019-05-18T09:51:09.889Z,85
2019-05-18T09:52:10.389Z,85
2019-05-18T09:53:10.885Z,85
2019-05-18T09:54:09.752Z,85
2019-05-18T09:55:10.278Z,85
2019-05-18T09:56:09.971Z,85
2019-05-18T09:57:09.805Z,85
2019-05-18T09:58:09.895Z,85
2019-05-18T09:59:09.846Z,85
2019-05-18T10:00:09.826Z,85
2019-05-18T10:01:10.248Z,85
2019-05-18T10:02:09.825Z,85
2019-05-18T10:03:09.765Z,85
2019-05-18T10:04:09.821Z,85
2019-05-18T10:05:10.682Z,85
2019-05-18T10:06:09.995Z,85
2019-05-18T10:07:17.354Z,85
2019-05-18T10:08:10.008Z,85
2019-05-18T10:09:09.994Z,85
2019-05-18T10:10:10.150Z,85
2019-05-18T10:11:09.989Z,85
2019-05-18T10:12:10.031Z,85
2019-05-18T10:13:10.138Z,85
2019-05-18T10:14:09.941Z,85
2019-05-18T10:15:10.379Z,85
2019-05-18T10:16:10.123Z,85
2019-05-18T10:17:09.916Z,85
2019-05-18T10:18:09.824Z,85
2019-05-18T10:19:10.159Z,85
2019-05-18T10:20:10.000Z,85
2019-05-18T10:21:09.973Z,85
2019-05-18T10:22:09.951Z,85
2019-05-18T10:23:22.906Z,85
2019-05-18T10:24:10.070Z,85
2019-05-18T10:25:10.320Z,85
2019-05-18T10:26:09.964Z,85
2019-05-18T10:27:09.904Z,90
2019-05-18T10:28:09.973Z,90
2019-05-18T10:29:09.856Z,90
2019-05-18T10:30:10.032Z,85
2019-05-18T10:31:09.912Z,85
2019-05-18T10:32:09.914Z,85
2019-05-18T10:33:10.025Z,85
2019-05-18T10:34:09.869Z,85
2019-05-18T10:35:09.860Z,85
2019-05-18T10:36:11.724Z,85
2019-05-18T10:37:20.651Z,85
2019-05-18T10:42:28.312Z,85
2019-05-18T10:42:39.491Z,85
2019-05-18T10:43:39.970Z,85
2019-05-18T10:44:39.405Z,85
2019-05-18T10:45:39.536Z,85
2019-05-18T10:46:39.381Z,85
2019-05-18T10:47:39.381Z,85
2019-05-18T10:48:39.371Z,85
2019-05-18T10:49:39.765Z,85
2019-05-18T10:50:39.366Z,85
2019-05-18T10:51:39.349Z,85
2019-05-18T10:52:39.808Z,85
2019-05-18T10:53:39.589Z,85
2019-05-18T10:54:39.759Z,85
2019-05-18T10:55:39.859Z,85
2019-05-18T10:56:41.719Z,85
2019-05-18T10:57:39.533Z,85
2019-05-18T10:58:39.417Z,85
2019-05-18T10:59:39.346Z,85
2019-05-18T11:00:39.409Z,85
2019-05-18T11:01:39.707Z,85
2019-05-18T11:02:39.469Z,90
2019-05-18T11:03:39.923Z,85
2019-05-18T11:04:39.414Z,85
2019-05-18T11:05:39.435Z,85
2019-05-18T11:06:39.394Z,85
2019-05-18T11:07:39.873Z,90
2019-05-18T11:08:41.104Z,35
2019-05-18T11:09:39.350Z,55
2019-05-18T11:10:40.385Z,85
2019-05-18T11:11:39.320Z,85
2019-05-18T11:12:39.391Z,85
2019-05-18T11:13:39.741Z,85
2019-05-18T11:14:39.367Z,85
2019-05-18T11:15:39.396Z,85
2019-05-18T11:16:39.403Z,85
2019-05-18T11:17:39.359Z,85
2019-05-18T11:22:58.630Z,90
2019-05-18T11:24:09.628Z,85
2019-05-18T11:25:09.715Z,85
2019-05-18T11:26:09.607Z,85
2019-05-18T11:27:09.649Z,85
2019-05-18T11:28:10.235Z,85
2019-05-18T11:29:09.622Z,85
2019-05-18T11:30:10.494Z,85
2019-05-18T11:31:09.578Z,85
2019-05-18T11:32:09.627Z,85
2019-05-18T11:33:09.800Z,60
2019-05-18T11:34:09.941Z,25
2019-05-18T11:35:10.570Z,55
2019-05-18T11:36:09.635Z,25
2019-05-18T11:37:26.361Z,30
2019-05-18T11:38:09.620Z,25
2019-05-18T11:39:09.717Z,85
2019-05-18T11:40:09.752Z,35
2019-05-18T11:41:09.702Z,30
2019-05-18T11:42:09.786Z,65
2019-05-18T11:47:26.729Z,90
2019-05-18T11:48:37.814Z,85
2019-05-18T11:49:40.348Z,85
2019-05-18T11:50:37.743Z,25
2019-05-18T11:51:37.696Z,25
2019-05-18T11:52:38.348Z,25
2019-05-18T11:53:37.754Z,25
2019-05-18T11:54:37.695Z,45
2019-05-18T11:55:37.743Z,30
2019-05-18T11:56:37.745Z,25
2019-05-18T11:57:37.697Z,25
2019-05-18T11:58:38.197Z,25
2019-05-18T11:59:37.810Z,70
2019-05-18T12:00:38.004Z,85
2019-05-18T12:01:37.766Z,85
2019-05-18T12:02:37.672Z,85
2019-05-18T12:03:37.762Z,85
2019-05-18T12:04:38.151Z,85
2019-05-18T12:05:37.788Z,85
2019-05-18T12:06:37.806Z,85
2019-05-18T12:07:37.761Z,85
2019-05-18T12:08:37.836Z,85
2019-05-18T12:09:38.100Z,85
2019-05-18T12:10:37.991Z,85
2019-05-18T12:11:37.738Z,85
2019-05-18T12:12:37.797Z,85
2019-05-18T12:13:37.763Z,85
2019-05-18T12:14:37.828Z,80
2019-05-18T12:15:37.824Z,85
2019-05-18T12:16:38.154Z,80
2019-05-18T12:17:37.738Z,85
2019-05-18T12:18:37.755Z,75
2019-05-18T12:19:37.741Z,80
2019-05-18T12:20:37.768Z,45
2019-05-18T12:21:37.802Z,70
2019-05-18T12:22:38.069Z,80
2019-05-18T12:23:37.834Z,80
2019-05-18T12:24:37.897Z,80
2019-05-18T12:25:37.783Z,85
2019-05-18T12:26:37.811Z,85
2019-05-18T12:27:38.211Z,85
2019-05-18T12:28:39.683Z,90
2019-05-18T12:29:37.811Z,90
2019-05-18T12:30:37.835Z,90
2019-05-18T12:31:37.827Z,90
2019-05-18T12:32:37.849Z,85
2019-05-18T12:33:37.802Z,85
2019-05-18T12:34:38.167Z,85
2019-05-18T12:35:37.810Z,85
2019-05-18T12:36:38.020Z,85
2019-05-18T12:37:37.863Z,85
2019-05-18T12:38:37.784Z,25
2019-05-18T12:39:37.884Z,20
2019-05-18T12:40:38.090Z,20
2019-05-18T12:41:37.848Z,55
2019-05-18T12:42:37.818Z,90
2019-05-18T12:43:37.827Z,85
2019-05-18T12:44:38.745Z,75
2019-05-18T12:45:37.920Z,85
2019-05-18T12:46:38.240Z,85
2019-05-18T12:47:37.863Z,85
2019-05-18T12:48:37.910Z,90
2019-05-18T12:49:37.842Z,90
2019-05-18T12:50:38.135Z,90
2019-05-18T12:51:37.790Z,90
2019-05-18T12:56:54.390Z,85
2019-05-18T12:58:05.413Z,85
2019-05-18T12:59:05.359Z,85
2019-05-18T13:00:05.431Z,90
2019-05-18T13:01:05.825Z,85
2019-05-18T13:02:05.544Z,25
2019-05-18T13:03:05.489Z,25
2019-05-18T13:04:05.372Z,25
2019-05-18T13:05:05.492Z,60
2019-05-18T13:06:05.429Z,50
2019-05-18T13:07:05.698Z,75
2019-05-18T13:08:05.411Z,30
2019-05-18T13:09:05.433Z,80
2019-05-18T13:10:05.522Z,35
2019-05-18T13:11:05.592Z,25
2019-05-18T13:12:05.523Z,25
2019-05-18T13:13:05.874Z,25
2019-05-18T13:14:05.553Z,25
2019-05-18T13:15:05.618Z,20
2019-05-18T13:16:05.587Z,25
2019-05-18T13:17:05.527Z,70
2019-05-18T13:18:05.421Z,25
2019-05-18T13:19:05.757Z,30
2019-05-18T13:20:05.545Z,35
2019-05-18T13:21:05.537Z,35
2019-05-18T13:22:05.502Z,20
2019-05-18T13:23:05.454Z,20
2019-05-18T13:24:05.512Z,20
2019-05-18T13:25:06.693Z,25
2019-05-18T13:26:05.389Z,20
2019-05-18T13:27:20.407Z,20
2019-05-18T13:28:05.458Z,25
2019-05-18T13:29:05.444Z,25
2019-05-18T13:30:05.521Z,20
2019-05-18T13:31:06.069Z,20
2019-05-18T13:32:05.607Z,20
2019-05-18T13:37:30.652Z,65
2019-05-18T13:37:41.955Z,65
2019-05-18T13:38:41.614Z,35
2019-05-18T13:39:41.667Z,25
2019-05-18T13:40:41.769Z,25
2019-05-18T13:41:42.057Z,25
2019-05-18T13:42:41.778Z,20
2019-05-18T13:43:41.624Z,20
2019-05-18T13:44:43.493Z,20
2019-05-18T13:45:41.766Z,25
2019-05-18T13:46:41.740Z,40
2019-05-18T13:47:41.899Z,70
2019-05-18T13:48:41.652Z,25
2019-05-18T13:49:41.668Z,20
2019-05-18T13:50:44.601Z,20
2019-05-18T13:51:41.818Z,20
2019-05-18T13:52:41.704Z,20
2019-05-18T13:53:42.054Z,20
2019-05-18T13:54:41.673Z,20
2019-05-18T13:55:41.658Z,20
2019-05-18T13:56:45.152Z,20
2019-05-18T13:57:41.695Z,20
2019-05-18T13:58:41.659Z,20
2019-05-18T13:59:41.994Z,20
2019-05-18T14:00:41.692Z,20
2019-05-18T14:01:41.674Z,20
2019-05-18T14:02:41.662Z,20
2019-05-18T14:03:42.335Z,20
2019-05-18T14:04:41.741Z,20
2019-05-18T14:05:42.071Z,20
2019-05-18T14:06:41.702Z,20
2019-05-18T14:07:43.205Z,20
2019-05-18T14:08:41.808Z,20
2019-05-18T14:09:41.698Z,20
2019-05-18T14:10:41.924Z,20
2019-05-18T14:11:41.976Z,20
2019-05-18T14:12:41.755Z,20
2019-05-18T14:13:41.707Z,15
2019-05-18T14:14:41.725Z,15
2019-05-18T14:15:41.733Z,15
2019-05-18T14:16:41.687Z,15
2019-05-18T14:17:43.393Z,15
2019-05-18T14:18:41.855Z,15
2019-05-18T14:19:41.929Z,15
2019-05-18T14:20:41.808Z,15
2019-05-18T14:21:41.718Z,15
2019-05-18T14:22:41.737Z,15
2019-05-18T14:23:42.077Z,15
2019-05-18T14:24:41.709Z,20
2019-05-18T14:25:41.766Z,20
2019-05-18T14:26:41.886Z,20
2019-05-18T14:27:41.739Z,20
2019-05-18T14:28:41.772Z,20
2019-05-18T14:29:42.114Z,20
2019-05-18T14:30:41.736Z,20
2019-05-18T14:31:41.756Z,20
2019-05-18T14:32:41.786Z,20
2019-05-18T14:33:41.852Z,20
2019-05-18T14:34:41.777Z,20
2019-05-18T14:35:44.141Z,20
2019-05-18T14:36:41.789Z,20
2019-05-18T14:37:45.668Z,20
2019-05-18T14:42:59.608Z,20
2019-05-18T14:43:11.008Z,20
2019-05-18T14:44:10.596Z,20
2019-05-18T14:45:10.708Z,20
2019-05-18T14:46:10.731Z,20
2019-05-18T14:47:10.637Z,20
2019-05-18T14:48:10.583Z,20
2019-05-18T14:49:10.935Z,20
2019-05-18T14:50:10.815Z,20
2019-05-18T14:51:10.756Z,20
2019-05-18T14:52:14.710Z,20
2019-05-18T14:53:12.270Z,20
2019-05-18T14:54:10.665Z,20
2019-05-18T14:55:10.687Z,20
2019-05-18T14:56:10.629Z,20
2019-05-18T14:57:10.678Z,25
2019-05-18T14:58:10.998Z,30
2019-05-18T14:59:10.745Z,20
2019-05-18T15:00:13.460Z,20
2019-05-18T15:01:13.431Z,20
2019-05-18T15:02:11.188Z,20
2019-05-18T15:03:10.747Z,25
2019-05-18T15:04:10.753Z,25
2019-05-18T15:05:11.544Z,25
2019-05-18T15:06:12.219Z,25
2019-05-18T15:07:11.671Z,25
2019-05-18T15:08:10.708Z,40